Terminal Aerodrome Forecast
Issued by NWS Quad Cities IA IL

Home | Current Version | Previous Version | Text Only | Print | Product List | Glossary On
Versions: 1 2 3 4 5 6 7 8 9 10 11 12 13 14 15 16 17 18 19 20 21 22 23 24 25 26 27 28 29 30 31 32 33 34
000
FTUS43 KDVN 241500 AAC
TAFDBQ
TAF AMD
KDBQ 241500Z 2415/2512 34012KT 3SM BR OVC004
     FM241700 31014KT 6SM BR OVC015
     FM242200 31012KT P6SM BKN025=

USA.gov is the U.S. government's official web portal to all federal, state and local government web resources and services.